West Yarmouth, MA (02673)

5:56 PM EST on December 04, 2016 (GMT -0500)
APRSWXNET | | Change Station

Elev 39 ft 41.67 °N, 70.25 °W | Updated 36 minutes ago

Clear
Clear
34 °F
Feels Like 34 °F
N
0
Wind Variable Wind from NNW
Gusts 0.0 mph

Today
High -- | Low -- °F
--% Chance of Precip.
Yesterday
High -- | Low -- °F
Precip. -- in
Pressure 30.16 in
Visibility 10.0 miles
Clouds Clear
Windchill 34 °F
Dew Point 25 °F
Humidity 70%
Rainfall in
Snow Depth Not available.
6:51 AM 4:10 PM
Waxing Crescent, 26% visible
METAR KHYA 042156Z 32004KT 10SM CLR 02/M06 A3015 RMK AO2 SLP213 T00171056
Pressure 30.16 in
Visibility 10.0 miles
Clouds Clear
Windchill 34 °F
Dew Point 25 °F
Humidity 70%
Rainfall in
Snow Depth Not available.
6:51 AM 4:10 PM
Waxing Crescent, 26% visible
METAR KHYA 042156Z 32004KT 10SM CLR 02/M06 A3015 RMK AO2 SLP213 T00171056

10-Day Weather Forecast

Almanac

Astronomy

Dec. 04, 2016 Rise Set
Actual Time
Civil Twilight
Nautical Twilight
Astronomical Twilight
Moon
Length of Visible Light
Length of Day
Tomorrow will be .
, % of the Moon is Illuminated

Today's Extremes

State Highs State Lows

Community

WunderPhotos

Upload Photos

1,955,686 photos uploaded!

WunderBlog® & News

Nearby

Air Quality

  Air Quality AQ Index Pollutant
Not available.

Snow Depth

Station Depth Elevation

Earthquake Activity

City Distance Mag. Time & Date
Minimum magnitude displayed is 2.5.

Coastal Water Temperatures

Place Temperature

Stations

Nearby Weather Stations

Station Location Temp. Windchill Dew Point Humidity Wind Precip. Elev Updated Type
                   

Watches & Warnings

There are currently no watches in effect.